Time;durP1;ratioP1;P1;durP2;ratioP2;P2;SDS_P1;SDS_P2;PMS_P1;PMS_P2;Temp;Humidity;BMP_temperature;BMP_pressure;BME280_temperature;BME280_humidity;BME280_pressure;Samples;Min_cycle;Max_cycle;Signal;HPM_P1;HPM_P2
2022/12/20 00:02:04;;;;;;;;;11.67;11.67;;;;;12.42;67.06;101057.75;5061203;28;45284;-72
2022/12/20 00:04:30;;;;;;;;;9.00;8.00;;;;;12.43;66.59;101083.44;5072558;28;54675;-72
2022/12/20 00:06:55;;;;;;;;;10.33;8.67;;;;;12.41;66.82;101074.75;5078360;28;46779;-72
2022/12/20 00:09:21;;;;;;;;;10.33;10.33;;;;;11.97;66.77;100987.50;5073862;28;45353;-72
2022/12/20 00:11:46;;;;;;;;;10.00;10.00;;;;;12.39;67.14;101070.50;5076093;28;45380;-70
2022/12/20 00:14:12;;;;;;;;;8.67;8.67;;;;;12.29;67.06;101057.25;5072004;28;45432;-71
2022/12/20 00:16:37;;;;;;;;;9.67;9.00;;;;;12.36;66.99;101050.31;5052924;28;47630;-72
2022/12/20 00:19:05;;;;;;;;;7.00;6.00;;;;;12.32;66.93;101042.78;5075714;28;45454;-71
2022/12/20 00:21:32;;;;;;;;;11.33;9.33;;;;;11.96;67.06;100988.50;5059681;28;45292;-72
2022/12/20 00:23:59;;;;;;;;;11.67;10.00;;;;;12.07;66.87;100985.66;5074491;28;45486;-71
2022/12/20 00:26:28;;;;;;;;;9.00;9.00;;;;;12.37;66.87;101036.00;5078741;28;46368;-70
2022/12/20 00:28:54;;;;;;;;;11.33;9.00;;;;;12.12;66.48;100988.72;5044519;28;46250;-72
2022/12/20 00:31:21;;;;;;;;;9.00;8.00;;;;;12.38;66.63;101045.69;5061267;28;45444;-72
2022/12/20 00:33:49;;;;;;;;;10.00;8.00;;;;;12.33;66.69;101047.94;5045455;28;45653;-72
2022/12/20 00:36:16;;;;;;;;;10.00;10.00;;;;;11.55;66.60;100905.38;5067438;28;46395;-71
2022/12/20 00:38:44;;;;;;;;;9.00;8.00;;;;;12.36;66.65;101026.31;5067982;28;45618;-71
2022/12/20 00:41:12;;;;;;;;;8.33;7.00;;;;;12.33;66.76;101026.63;5061393;28;45625;-70
2022/12/20 00:43:39;;;;;;;;;10.50;9.00;;;;;12.04;67.18;100985.97;5079442;28;45258;-70
2022/12/20 00:46:06;;;;;;;;;12.67;9.33;;;;;12.28;67.27;101023.56;5061195;28;46569;-71
2022/12/20 00:48:32;;;;;;;;;13.00;9.00;;;;;11.97;67.08;100984.84;5063843;28;45459;-72
2022/12/20 00:51:03;;;;;;;;;7.67;7.67;;;;;12.22;67.52;101013.50;5070616;28;45250;-73
2022/12/20 00:53:29;;;;;;;;;10.00;9.00;;;;;12.24;67.48;101019.53;5059088;28;45517;-70
2022/12/20 00:55:55;;;;;;;;;8.33;8.00;;;;;11.79;67.09;100940.34;5066504;28;45507;-72
2022/12/20 00:58:20;;;;;;;;;10.33;9.67;;;;;12.26;67.24;101022.88;5051906;28;45368;-70
2022/12/20 01:00:46;;;;;;;;;10.00;8.00;;;;;12.14;67.44;101018.72;5060998;28;45376;-70
2022/12/20 01:03:11;;;;;;;;;11.00;8.00;;;;;12.26;67.54;101022.88;5061491;28;45210;-71
2022/12/20 01:05:36;;;;;;;;;9.00;8.00;;;;;12.24;67.08;101018.69;5041771;28;58537;-69
2022/12/20 01:08:02;;;;;;;;;9.00;8.00;;;;;12.22;66.99;101015.34;5075148;28;45346;-73
2022/12/20 01:10:28;;;;;;;;;9.00;8.33;;;;;12.00;67.02;100981.88;5062181;28;45234;-70
2022/12/20 01:12:53;;;;;;;;;7.67;7.67;;;;;12.25;67.12;101031.03;5078658;27;45534;-71
2022/12/20 01:15:20;;;;;;;;;9.33;8.67;;;;;12.23;66.89;101011.69;5058523;28;47813;-70
2022/12/20 01:17:45;;;;;;;;;8.00;8.00;;;;;12.19;67.18;101011.13;5048987;28;45470;-71
2022/12/20 01:20:11;;;;;;;;;10.00;10.00;;;;;11.97;66.78;100969.72;5067107;28;45281;-72
2022/12/20 01:22:36;;;;;;;;;11.67;9.67;;;;;11.52;67.73;100897.69;5053012;28;45260;-71
2022/12/20 01:25:02;;;;;;;;;8.00;8.00;;;;;12.09;67.75;100989.84;5070579;28;46298;-71
2022/12/20 01:27:27;;;;;;;;;9.67;7.67;;;;;11.59;67.21;100906.75;5078434;28;45265;-72
2022/12/20 01:29:53;;;;;;;;;8.00;7.00;;;;;12.26;67.36;101006.88;5071379;28;45335;-72
2022/12/20 01:32:18;;;;;;;;;7.33;7.33;;;;;12.26;67.91;101022.88;5066963;28;45450;-71
2022/12/20 01:34:44;;;;;;;;;7.00;7.00;;;;;12.07;67.53;100993.66;5057969;28;45858;-71
2022/12/20 01:37:09;;;;;;;;;9.33;7.00;;;;;12.10;67.33;100982.69;5066412;28;45456;-71
2022/12/20 01:39:35;;;;;;;;;10.00;10.00;;;;;11.99;67.77;100966.88;5074724;28;45475;-71
2022/12/20 01:42:00;;;;;;;;;12.33;9.00;;;;;12.13;67.65;100990.38;5048567;28;45485;-70
2022/12/20 01:44:25;;;;;;;;;9.00;9.00;;;;;12.23;68.03;101004.53;5068025;28;48869;-71
2022/12/20 01:46:52;;;;;;;;;10.67;9.00;;;;;11.99;67.89;100973.06;5077934;28;45422;-70
2022/12/20 01:49:20;;;;;;;;;8.67;8.33;;;;;12.24;67.54;101011.53;5069390;28;45312;-70
2022/12/20 01:51:50;;;;;;;;;10.67;9.00;;;;;12.26;67.38;101006.06;5063144;28;45490;-70
2022/12/20 01:54:22;;;;;;;;;10.00;10.00;;;;;11.80;67.61;100946.50;5061212;28;46742;-70
2022/12/20 01:57:02;;;;;;;;;9.67;8.00;;;;;12.26;67.36;101004.22;5077027;28;45483;-72
2022/12/20 01:59:28;;;;;;;;;8.00;8.00;;;;;11.72;67.51;100930.41;5069448;28;45336;-71
2022/12/20 02:02:01;;;;;;;;;8.67;8.33;;;;;12.14;67.62;100976.06;5070177;28;45494;-71
2022/12/20 02:04:26;;;;;;;;;12.00;11.00;;;;;12.17;67.19;100997.09;5060033;28;46303;-71
2022/12/20 02:06:52;;;;;;;;;6.00;6.00;;;;;12.20;67.23;100986.13;5049473;28;46374;-71
2022/12/20 02:09:17;;;;;;;;;6.33;6.33;;;;;12.13;67.32;100985.91;5066166;28;45482;-71
2022/12/20 02:11:58;;;;;;;;;6.67;6.67;;;;;12.21;67.50;101009.13;5068215;28;45655;-70
2022/12/20 02:14:35;;;;;;;;;8.67;7.67;;;;;12.23;67.38;101011.69;5092886;27;46437;-71
2022/12/20 02:17:32;;;;;;;;;8.00;6.33;;;;;12.21;67.41;101010.97;5083595;27;45298;-72
2022/12/20 02:20:47;;;;;;;;;10.00;8.67;;;;;12.21;67.46;101003.81;5096602;27;45991;-71
2022/12/20 02:23:57;;;;;;;;;8.33;8.33;;;;;12.05;67.29;100992.97;5022109;27;45566;-72
2022/12/20 02:26:41;;;;;;;;;7.67;6.00;;;;;12.21;67.20;101006.47;5085602;27;46631;-72
2022/12/20 02:29:24;;;;;;;;;9.00;8.00;;;;;12.08;66.95;100987.34;5089791;27;45411;-71
2022/12/20 02:32:07;;;;;;;;;6.33;6.33;;;;;12.19;66.87;101001.28;5097177;27;45358;-70
2022/12/20 02:34:36;;;;;;;;;7.67;6.00;;;;;12.11;66.69;100998.53;5096127;27;45585;-70
2022/12/20 02:37:01;;;;;;;;;7.00;6.00;;;;;12.17;66.92;101003.28;5077710;27;46784;-71
2022/12/20 02:39:29;;;;;;;;;7.00;7.00;;;;;11.52;67.47;100887.03;5086253;27;45306;-71
2022/12/20 02:42:05;;;;;;;;;6.00;6.00;;;;;12.12;67.12;101004.72;5089181;27;45280;-70
2022/12/20 02:47:24;;;;;;;;;9.00;8.00;;;;;12.13;66.92;100999.22;5077604;27;45880;-72
2022/12/20 02:49:53;;;;;;;;;6.33;5.33;;;;;11.72;66.76;100933.91;5088818;27;45406;-72
2022/12/20 02:52:21;;;;;;;;;6.33;6.33;;;;;11.89;66.75;100956.28;5093181;27;45566;-71
2022/12/20 02:54:47;;;;;;;;;8.00;8.00;;;;;12.08;66.84;100976.69;5086200;27;45235;-71
2022/12/20 02:57:22;;;;;;;;;6.67;5.67;;;;;11.66;66.78;100902.53;5078756;27;45513;-74
2022/12/20 03:00:00;;;;;;;;;9.00;8.00;;;;;11.53;66.90;100875.38;5085971;27;45590;-71
2022/12/20 03:02:26;;;;;;;;;8.00;6.00;;;;;11.27;66.89;100828.16;5076692;27;45545;-74
2022/12/20 03:04:54;;;;;;;;;5.33;5.00;;;;;11.79;67.04;100918.19;5086303;27;45565;-72
2022/12/20 03:07:19;;;;;;;;;7.00;7.00;;;;;11.11;66.58;100809.31;5107048;27;47490;-72
2022/12/20 03:09:45;;;;;;;;;7.00;7.00;;;;;11.23;66.54;100831.25;5093116;27;45259;-70
2022/12/20 03:12:12;;;;;;;;;6.33;5.33;;;;;11.68;66.48;100894.41;5092670;27;45461;-71
2022/12/20 03:14:38;;;;;;;;;6.00;6.00;;;;;11.88;67.07;100931.47;5065601;28;45269;-73
2022/12/20 03:17:04;;;;;;;;;6.00;5.00;;;;;11.77;66.96;100923.63;5076058;28;45687;-72
2022/12/20 03:19:30;;;;;;;;;7.33;7.00;;;;;11.27;67.08;100836.13;5068941;28;46307;-69
2022/12/20 03:21:55;;;;;;;;;6.00;6.00;;;;;11.84;66.64;100931.94;5058821;28;45290;-71
2022/12/20 03:24:21;;;;;;;;;7.33;7.33;;;;;11.94;67.05;100958.50;5077059;28;45538;-71
2022/12/20 03:26:46;;;;;;;;;6.00;6.00;;;;;11.43;66.76;100864.81;5068189;28;45914;-71
2022/12/20 03:29:11;;;;;;;;;7.00;7.00;;;;;11.67;66.61;100911.34;5076530;28;45281;-72
2022/12/20 03:31:37;;;;;;;;;6.00;5.33;;;;;11.61;66.79;100898.59;5058406;28;45549;-70
2022/12/20 03:34:03;;;;;;;;;6.33;6.33;;;;;11.91;66.79;100933.00;5058034;28;45511;-72
2022/12/20 03:36:29;;;;;;;;;8.67;8.33;;;;;11.88;66.67;100939.47;5070404;28;45641;-72
2022/12/20 03:38:54;;;;;;;;;5.33;5.00;;;;;11.52;66.56;100881.72;5065867;28;45201;-69
2022/12/20 03:41:21;;;;;;;;;8.67;7.00;;;;;11.79;66.38;100935.00;5054203;28;45225;-73
2022/12/20 03:43:49;;;;;;;;;5.00;5.00;;;;;11.88;66.69;100963.44;5046313;28;45266;-70
2022/12/20 03:46:15;;;;;;;;;5.00;5.00;;;;;11.87;66.82;100953.78;5067798;28;46721;-70
2022/12/20 03:48:41;;;;;;;;;4.33;4.33;;;;;11.87;66.54;100964.44;5066422;28;46842;-70
2022/12/20 03:51:06;;;;;;;;;6.00;5.00;;;;;11.81;66.65;100949.03;5066461;28;45533;-72
2022/12/20 03:53:32;;;;;;;;;5.00;5.00;;;;;11.86;66.71;100952.09;5062503;28;45489;-70
2022/12/20 03:55:58;;;;;;;;;5.67;5.33;;;;;11.88;66.78;100943.97;5068201;28;46177;-72
2022/12/20 03:58:24;;;;;;;;;5.00;5.00;;;;;11.87;66.43;100948.44;5070789;28;45500;-71
2022/12/20 04:00:49;;;;;;;;;5.67;4.33;;;;;11.69;66.58;100910.22;5046079;28;45660;-71
2022/12/20 04:03:15;;;;;;;;;4.67;4.00;;;;;11.85;66.63;100934.44;5068210;28;45607;-71
2022/12/20 04:05:40;;;;;;;;;6.33;4.67;;;;;11.41;66.80;100871.22;5061676;28;45669;-72
2022/12/20 04:08:06;;;;;;;;;3.33;3.33;;;;;11.75;66.42;100920.28;5064690;28;45538;-71
2022/12/20 04:10:31;;;;;;;;;6.33;5.00;;;;;11.72;66.04;100912.59;5065034;28;46674;-70
2022/12/20 04:12:57;;;;;;;;;5.33;5.33;;;;;11.73;66.66;100919.59;5064703;27;45498;-72
2022/12/20 04:15:22;;;;;;;;;6.00;6.00;;;;;11.88;66.78;100926.16;5059609;28;46353;-71
2022/12/20 04:17:47;;;;;;;;;6.00;6.00;;;;;11.88;65.98;100920.81;5059814;28;49623;-70
2022/12/20 04:20:17;;;;;;;;;3.00;3.00;;;;;11.73;66.47;100903.63;5042192;28;45486;-71
2022/12/20 04:22:47;;;;;;;;;4.67;4.67;;;;;11.74;66.42;100899.13;5071928;28;45475;-71
2022/12/20 04:25:14;;;;;;;;;8.00;8.00;;;;;11.54;66.29;100855.75;5069379;28;46187;-70
2022/12/20 04:27:40;;;;;;;;;4.00;4.00;;;;;11.49;66.17;100836.75;5059652;28;45539;-71
2022/12/20 04:30:06;;;;;;;;;6.00;6.00;;;;;11.88;65.67;100894.19;5059481;28;45427;-72
2022/12/20 04:32:31;;;;;;;;;6.33;5.00;;;;;11.86;66.18;100887.31;5068257;28;45392;-70
2022/12/20 04:34:56;;;;;;;;;5.33;4.00;;;;;11.86;66.60;100897.97;5066229;28;56743;-70
2022/12/20 04:37:21;;;;;;;;;4.33;4.33;;;;;11.85;66.31;100897.16;5062283;28;45355;-70
2022/12/20 04:39:47;;;;;;;;;6.00;6.00;;;;;11.86;66.27;100893.50;5079327;28;45266;-70
2022/12/20 04:42:12;;;;;;;;;8.00;8.00;;;;;11.86;66.66;100908.63;5070672;28;45549;-72
2022/12/20 04:44:37;;;;;;;;;7.00;7.00;;;;;11.52;66.00;100855.91;5060737;28;59016;-73
2022/12/20 04:47:03;;;;;;;;;7.00;7.00;;;;;11.88;65.77;100896.84;5070868;28;45509;-70
2022/12/20 04:49:28;;;;;;;;;8.67;6.67;;;;;11.61;66.23;100862.16;5078787;28;45416;-72
2022/12/20 04:51:53;;;;;;;;;7.67;6.00;;;;;11.89;66.44;100887.03;5073275;28;45545;-70
2022/12/20 04:54:19;;;;;;;;;6.33;6.33;;;;;11.41;66.22;100815.31;5050630;28;48484;-71
2022/12/20 04:56:44;;;;;;;;;6.33;5.67;;;;;11.47;66.14;100828.06;5060799;28;45345;-71
2022/12/20 04:59:11;;;;;;;;;4.67;4.67;;;;;11.84;66.37;100899.97;5070360;28;45510;-76
2022/12/20 05:01:36;;;;;;;;;7.67;5.33;;;;;11.77;66.52;100872.19;5067573;28;45276;-71
2022/12/20 05:04:02;;;;;;;;;5.67;4.67;;;;;11.86;66.13;100912.13;5065773;28;45729;-69
2022/12/20 05:06:27;;;;;;;;;5.67;5.67;;;;;11.91;66.04;100905.53;5058243;28;45805;-71
2022/12/20 05:08:54;;;;;;;;;5.00;5.00;;;;;11.90;66.34;100887.84;5049321;28;45340;-71
2022/12/20 05:11:19;;;;;;;;;8.00;6.67;;;;;11.46;66.16;100807.75;5067837;28;45589;-70
2022/12/20 05:13:44;;;;;;;;;4.33;4.33;;;;;11.73;66.08;100845.00;5084344;27;48743;-72
2022/12/20 05:16:10;;;;;;;;;6.00;5.00;;;;;11.85;65.90;100862.50;5090840;27;45431;-70
2022/12/20 05:18:35;;;;;;;;;5.00;5.00;;;;;11.90;66.01;100863.88;5111918;27;45369;-72
2022/12/20 05:26:33;;;;;;;;;7.33;5.00;;;;;11.94;65.83;100867.91;5078949;27;45516;-71
2022/12/20 05:28:58;;;;;;;;;6.33;6.00;;;;;11.96;65.63;100860.63;5092886;27;45544;-70
2022/12/20 05:31:24;;;;;;;;;8.00;5.67;;;;;11.98;65.98;100863.97;5090054;27;45631;-72
2022/12/20 05:33:49;;;;;;;;;5.00;5.00;;;;;11.14;65.98;100721.19;5096953;27;45775;-71
2022/12/20 05:36:14;;;;;;;;;5.00;4.00;;;;;11.84;65.35;100818.22;5090044;27;45457;-72
2022/12/20 05:38:40;;;;;;;;;4.33;4.33;;;;;12.04;65.91;100866.03;5078863;27;45525;-71
2022/12/20 05:41:05;;;;;;;;;5.00;5.00;;;;;11.79;65.70;100828.47;5087141;27;45662;-71
2022/12/20 05:43:31;;;;;;;;;5.00;5.00;;;;;12.01;65.44;100858.31;5087611;27;45801;-71
2022/12/20 05:45:56;;;;;;;;;4.00;4.00;;;;;12.11;65.71;100880.44;5085983;27;45596;-70
2022/12/20 05:48:21;;;;;;;;;5.00;4.00;;;;;12.03;65.79;100859.03;5085597;27;45466;-72
2022/12/20 05:50:47;;;;;;;;;4.33;4.33;;;;;11.95;66.10;100845.63;5097419;27;45161;-71
2022/12/20 05:53:15;;;;;;;;;4.00;4.00;;;;;12.12;66.22;100855.47;5083776;27;45666;-74
2022/12/20 05:55:48;;;;;;;;;3.00;3.00;;;;;12.00;66.20;100846.00;5096199;27;45521;-72
2022/12/20 05:58:14;;;;;;;;;6.00;4.00;;;;;11.62;65.75;100783.16;5091758;27;45315;-72
2022/12/20 06:00:40;;;;;;;;;7.00;5.00;;;;;12.12;65.94;100869.63;5087391;27;45364;-71
2022/12/20 06:03:08;;;;;;;;;3.00;3.00;;;;;11.15;65.51;100696.25;5091642;27;46377;-70
2022/12/20 06:05:34;;;;;;;;;6.00;4.67;;;;;12.15;65.33;100865.81;5084902;27;45432;-71
2022/12/20 06:07:59;;;;;;;;;6.00;4.00;;;;;12.12;65.88;100848.31;5090144;27;45357;-72
2022/12/20 06:10:25;;;;;;;;;6.00;4.67;;;;;12.16;65.67;100867.47;5090330;27;45997;-70
2022/12/20 06:12:50;;;;;;;;;4.67;4.67;;;;;12.19;65.34;100870.69;5085314;27;46478;-71
2022/12/20 06:15:16;;;;;;;;;3.00;2.00;;;;;12.19;65.41;100867.19;5092172;27;45516;-72
2022/12/20 06:17:41;;;;;;;;;4.00;3.00;;;;;12.22;65.57;100874.91;5089845;27;45275;-70
2022/12/20 06:20:07;;;;;;;;;3.00;3.00;;;;;12.10;65.54;100855.63;5093981;27;45403;-69
2022/12/20 06:22:33;;;;;;;;;3.00;3.00;;;;;12.07;65.32;100847.94;5085915;27;45957;-71
2022/12/20 06:24:58;;;;;;;;;4.00;4.00;;;;;12.08;65.54;100843.44;5097831;27;45344;-71
2022/12/20 06:27:23;;;;;;;;;4.00;4.00;;;;;11.91;65.09;100804.28;5083724;27;45528;-71
2022/12/20 06:29:53;;;;;;;;;5.00;5.00;;;;;12.27;65.49;100875.28;5078436;27;45211;-72
2022/12/20 06:32:18;;;;;;;;;6.00;4.00;;;;;12.20;65.43;100863.53;5083341;27;45789;-71
2022/12/20 06:34:44;;;;;;;;;10.00;8.00;;;;;11.65;65.12;100765.03;5095697;27;46380;-72
2022/12/20 06:37:09;;;;;;;;;4.67;4.00;;;;;12.32;65.36;100875.66;5084652;27;45193;-73
2022/12/20 06:39:34;;;;;;;;;4.00;4.00;;;;;9.39;64.70;100390.78;5086865;27;45430;-72
2022/12/20 06:42:00;;;;;;;;;3.00;3.00;;;;;12.22;65.17;100848.25;5085979;27;45746;-72
2022/12/20 06:44:25;;;;;;;;;4.00;4.00;;;;;12.14;64.89;100827.66;5083759;27;45268;-70
2022/12/20 06:46:50;;;;;;;;;4.33;2.33;;;;;12.35;65.18;100870.00;5080288;27;46233;-71
2022/12/20 06:49:16;;;;;;;;;4.00;4.00;;;;;12.36;65.09;100871.69;5090122;27;45196;-72
2022/12/20 06:51:41;;;;;;;;;3.67;3.67;;;;;12.39;65.12;100862.53;5089778;27;45698;-72
2022/12/20 06:54:06;;;;;;;;;4.33;4.33;;;;;12.35;65.20;100866.50;5097238;27;45225;-70
2022/12/20 06:56:32;;;;;;;;;5.67;3.33;;;;;12.21;65.47;100829.72;5097822;27;45280;-71
2022/12/20 06:58:57;;;;;;;;;4.33;4.33;;;;;12.40;65.27;100861.53;5096109;27;45593;-76
2022/12/20 07:01:23;;;;;;;;;5.00;4.00;;;;;12.28;65.07;100847.63;5084278;27;45860;-71
2022/12/20 07:03:48;;;;;;;;;4.33;4.33;;;;;12.41;65.38;100872.09;5086452;27;45257;-72
2022/12/20 07:06:13;;;;;;;;;3.00;3.00;;;;;12.32;65.21;100843.66;5085639;27;45251;-70
2022/12/20 07:08:39;;;;;;;;;4.00;3.33;;;;;11.82;65.42;100772.25;5077445;27;45313;-72
2022/12/20 07:11:06;;;;;;;;;3.67;3.67;;;;;12.42;65.66;100879.09;5085419;27;45548;-72
2022/12/20 07:13:32;;;;;;;;;4.67;4.67;;;;;12.41;65.34;100860.56;5075645;27;45574;-73
2022/12/20 07:15:58;;;;;;;;;3.00;3.00;;;;;11.68;65.07;100739.94;5084245;27;45523;-73
2022/12/20 07:18:24;;;;;;;;;4.00;3.33;;;;;11.91;65.30;100777.66;5084335;27;45368;-74
2022/12/20 07:20:49;;;;;;;;;2.00;1.67;;;;;12.48;64.97;100873.13;5088782;27;47283;-73
2022/12/20 07:23:15;;;;;;;;;2.67;2.67;;;;;12.41;65.36;100861.41;5088101;27;45174;-71
2022/12/20 07:25:43;;;;;;;;;4.33;4.33;;;;;12.44;64.71;100868.28;5096980;27;45286;-71
2022/12/20 07:28:08;;;;;;;;;5.00;4.00;;;;;12.47;65.07;100859.97;5086579;27;45260;-73
2022/12/20 07:30:33;;;;;;;;;5.00;5.00;;;;;12.47;64.91;100860.81;5080876;27;48025;-73
2022/12/20 07:32:59;;;;;;;;;3.00;3.00;;;;;12.49;65.17;100874.81;5087971;27;45304;-72
2022/12/20 07:35:25;;;;;;;;;6.33;5.00;;;;;12.47;65.22;100866.13;5088672;27;45568;-71
2022/12/20 07:37:50;;;;;;;;;4.33;4.00;;;;;10.69;64.76;100574.03;5089634;27;45537;-71
2022/12/20 07:40:16;;;;;;;;;5.00;4.00;;;;;11.92;64.77;100771.31;5093262;27;45677;-70
2022/12/20 07:42:41;;;;;;;;;4.00;4.00;;;;;12.53;64.57;100869.16;5085129;27;45521;-71
2022/12/20 07:45:07;;;;;;;;;5.00;5.00;;;;;12.54;64.77;100870.84;5100628;27;45348;-71
2022/12/20 07:47:34;;;;;;;;;5.00;4.33;;;;;12.55;64.54;100872.53;5077642;27;45449;-72
2022/12/20 07:50:00;;;;;;;;;6.33;6.33;;;;;12.54;64.71;100885.00;5092981;27;46731;-73
2022/12/20 07:52:28;;;;;;;;;3.00;3.00;;;;;12.54;64.58;100865.50;5078840;27;45752;-76
2022/12/20 07:55:00;;;;;;;;;4.33;3.67;;;;;12.13;64.34;100803.84;5105281;27;45303;-73
2022/12/20 07:57:40;;;;;;;;;4.00;4.00;;;;;12.38;64.63;100832.38;5080861;27;45632;-72
2022/12/20 08:00:07;;;;;;;;;6.33;6.33;;;;;11.90;64.26;100766.16;5082988;27;46601;-71
2022/12/20 08:02:37;;;;;;;;;4.00;4.00;;;;;12.57;64.19;100867.88;5090539;27;45609;-73
2022/12/20 08:05:06;;;;;;;;;7.33;6.00;;;;;12.38;64.51;100840.38;5091410;27;45564;-72
2022/12/20 08:07:31;;;;;;;;;5.00;5.00;;;;;12.59;64.08;100872.06;5104387;27;45337;-71
2022/12/20 08:09:57;;;;;;;;;8.00;6.00;;;;;12.60;63.96;100878.22;5094039;27;47464;-73
2022/12/20 08:12:24;;;;;;;;;9.00;8.00;;;;;12.61;64.00;100887.91;5097756;27;45498;-73
2022/12/20 08:14:54;;;;;;;;;6.33;5.00;;;;;12.59;64.25;100868.53;5071633;28;45347;-71
2022/12/20 08:17:21;;;;;;;;;7.00;5.33;;;;;12.66;64.02;100870.47;5052913;28;45540;-72
2022/12/20 08:19:47;;;;;;;;;7.00;6.00;;;;;12.69;64.26;100882.66;5074109;28;45946;-74
2022/12/20 08:22:13;;;;;;;;;5.33;4.00;;;;;12.54;63.50;100849.50;5067651;28;45481;-72
2022/12/20 08:24:38;;;;;;;;;5.67;5.67;;;;;12.45;63.90;100844.13;5071392;28;45485;-73
2022/12/20 08:27:03;;;;;;;;;5.67;4.00;;;;;12.54;63.70;100854.84;5064220;28;45520;-73
2022/12/20 08:29:29;;;;;;;;;8.00;8.00;;;;;12.73;63.59;100876.84;5041454;28;50485;-71
2022/12/20 08:31:54;;;;;;;;;6.67;6.67;;;;;12.29;63.56;100811.16;5067159;28;51071;-73
2022/12/20 08:34:20;;;;;;;;;4.00;4.00;;;;;12.66;63.96;100854.47;5068029;28;45262;-73
2022/12/20 08:36:45;;;;;;;;;7.00;4.33;;;;;12.74;64.13;100872.34;5062566;28;45568;-74
2022/12/20 08:39:10;;;;;;;;;7.67;7.67;;;;;12.74;63.40;100865.19;5077765;28;48368;-72
2022/12/20 08:41:36;;;;;;;;;4.67;4.33;;;;;12.41;63.50;100813.44;5070756;28;45154;-73
2022/12/20 08:44:03;;;;;;;;;8.00;5.67;;;;;12.67;63.57;100855.28;5077852;28;45397;-72
2022/12/20 08:46:28;;;;;;;;;4.33;4.33;;;;;12.73;63.51;100873.34;5068907;28;45182;-73
2022/12/20 08:48:54;;;;;;;;;6.00;5.00;;;;;12.29;63.51;100803.97;5046599;28;45982;-72
2022/12/20 08:51:19;;;;;;;;;5.00;5.00;;;;;11.72;63.71;100706.66;5070059;28;45519;-74
2022/12/20 08:53:44;;;;;;;;;3.00;3.00;;;;;12.73;63.58;100870.66;5052804;28;45470;-75
2022/12/20 08:56:13;;;;;;;;;6.00;6.00;;;;;12.71;63.21;100870.81;5072374;28;45558;-72
2022/12/20 08:58:39;;;;;;;;;4.67;4.67;;;;;12.75;63.03;100868.69;5069659;28;46633;-73
2022/12/20 09:01:08;;;;;;;;;4.00;4.00;;;;;12.80;62.84;100879.72;5072461;28;45245;-73
2022/12/20 09:03:35;;;;;;;;;7.00;6.00;;;;;12.75;63.40;100871.34;5076801;28;45296;-72
2022/12/20 09:06:03;;;;;;;;;6.00;4.00;;;;;12.57;63.69;100838.53;5064737;28;45482;-71
2022/12/20 09:08:29;;;;;;;;;6.00;5.00;;;;;12.77;63.77;100867.53;5062080;28;47996;-71
2022/12/20 09:11:02;;;;;;;;;9.33;7.33;;;;;12.82;64.36;100875.09;5070738;28;45447;-71
2022/12/20 09:13:28;;;;;;;;;5.00;5.00;;;;;12.76;64.29;100876.53;5061764;27;45366;-72
2022/12/20 09:15:53;;;;;;;;;6.00;5.33;;;;;12.87;64.18;100893.31;5091722;27;45486;-72
2022/12/20 09:18:18;;;;;;;;;7.67;7.67;;;;;12.83;64.79;100891.94;5099075;27;47506;-72
2022/12/20 09:20:44;;;;;;;;;4.00;4.00;;;;;12.56;64.71;100835.03;5095456;27;45534;-71
2022/12/20 09:23:10;;;;;;;;;4.33;4.33;;;;;12.79;65.37;100870.03;5093379;27;45368;-73
2022/12/20 09:25:36;;;;;;;;;6.00;4.33;;;;;12.22;65.29;100778.94;5080693;27;45613;-74
2022/12/20 09:28:07;;;;;;;;;6.67;5.33;;;;;12.74;66.06;100872.34;5085310;27;45866;-75
2022/12/20 09:30:32;;;;;;;;;8.67;6.00;;;;;12.81;66.50;100889.41;5096069;27;45524;-74
2022/12/20 09:32:58;;;;;;;;;8.67;7.00;;;;;12.77;66.84;100893.38;5090629;27;45479;-72
2022/12/20 09:35:23;;;;;;;;;8.00;6.00;;;;;12.74;67.06;100889.19;5089221;27;45590;-74
2022/12/20 09:37:48;;;;;;;;;8.00;5.00;;;;;12.43;67.72;100831.94;5088165;27;45495;-73
2022/12/20 09:40:20;;;;;;;;;7.00;5.33;;;;;12.69;68.46;100885.31;5092927;27;45283;-73
2022/12/20 09:42:48;;;;;;;;;4.67;4.67;;;;;12.46;68.41;100848.47;5087794;27;45547;-72
2022/12/20 09:45:23;;;;;;;;;6.00;6.00;;;;;12.59;68.78;100871.22;5093175;27;45461;-73
2022/12/20 09:47:48;;;;;;;;;5.00;4.00;;;;;12.40;69.00;100840.22;5098126;27;45795;-73
2022/12/20 09:50:18;;;;;;;;;5.67;5.67;;;;;12.61;70.02;100882.56;5093342;27;45659;-73
2022/12/20 09:52:59;;;;;;;;;5.00;5.00;;;;;12.60;70.64;100887.06;5086429;27;45454;-73
2022/12/20 09:55:42;;;;;;;;;6.33;6.33;;;;;12.54;71.44;100878.84;5097340;27;45330;-72
2022/12/20 09:58:14;;;;;;;;;5.00;5.00;;;;;12.54;72.03;100877.00;5089109;27;47786;-72
2022/12/20 10:00:46;;;;;;;;;9.67;8.67;;;;;12.54;71.82;100873.50;5089865;27;45560;-73
2022/12/20 10:03:28;;;;;;;;;5.67;5.67;;;;;12.42;72.14;100865.75;5098860;27;45493;-74
2022/12/20 10:05:55;;;;;;;;;3.67;3.67;;;;;12.47;72.31;100866.13;5087946;27;45427;-71
2022/12/20 10:08:39;;;;;;;;;4.67;3.00;;;;;12.49;73.08;100861.47;5087644;27;45292;-72
2022/12/20 10:11:24;;;;;;;;;5.33;4.33;;;;;12.51;72.91;100863.16;5088337;27;46399;-73
2022/12/20 10:13:58;;;;;;;;;5.67;5.67;;;;;12.49;73.27;100864.16;5086558;27;45366;-71
2022/12/20 10:16:32;;;;;;;;;5.00;4.33;;;;;12.53;73.66;100863.84;5084044;27;45433;-72
2022/12/20 10:19:23;;;;;;;;;6.33;5.00;;;;;12.56;73.68;100868.84;5096818;27;46491;-73
2022/12/20 10:22:13;;;;;;;;;5.33;4.67;;;;;11.94;73.57;100782.66;5097678;27;45295;-72
2022/12/20 10:24:43;;;;;;;;;6.33;6.00;;;;;11.66;73.42;100737.41;5094276;27;45410;-72
2022/12/20 10:27:15;;;;;;;;;9.00;8.00;;;;;11.60;73.41;100735.34;5094776;27;45543;-71
2022/12/20 10:29:41;;;;;;;;;6.33;4.67;;;;;12.30;73.31;100837.66;5093839;27;46801;-73
2022/12/20 10:32:16;;;;;;;;;7.00;6.00;;;;;12.01;73.60;100773.06;5089310;27;45164;-72
2022/12/20 10:34:58;;;;;;;;;7.67;7.67;;;;;11.98;73.44;100789.34;5081879;27;45469;-72
2022/12/20 10:37:24;;;;;;;;;9.33;7.67;;;;;12.40;73.39;100848.22;5091563;27;45355;-72
2022/12/20 10:39:50;;;;;;;;;11.33;6.00;;;;;12.45;73.51;100862.78;5097623;27;45453;-72
2022/12/20 10:42:24;;;;;;;;;8.00;6.00;;;;;12.10;73.52;100788.16;5094051;27;45632;-73
2022/12/20 10:44:50;;;;;;;;;7.00;7.00;;;;;12.36;73.94;100825.53;5086785;27;45228;-74
2022/12/20 10:47:39;;;;;;;;;9.67;6.67;;;;;12.47;73.49;100850.13;5089772;27;45456;-72
2022/12/20 10:50:23;;;;;;;;;8.33;7.33;;;;;12.55;73.44;100859.19;5088952;27;46958;-73
2022/12/20 10:53:18;;;;;;;;;8.00;7.00;;;;;12.53;73.38;100858.50;5096044;27;45242;-75
2022/12/20 10:55:44;;;;;;;;;10.00;10.00;;;;;12.55;73.55;100854.69;5085419;27;45177;-72
2022/12/20 10:58:32;;;;;;;;;8.00;8.00;;;;;12.58;73.58;100866.88;5079887;27;45455;-73
2022/12/20 11:01:17;;;;;;;;;12.67;12.33;;;;;11.93;73.21;100760.50;5095929;27;47293;-73
2022/12/20 11:03:54;;;;;;;;;13.00;11.00;;;;;12.52;73.49;100857.66;5088061;27;45554;-71
2022/12/20 11:06:23;;;;;;;;;9.67;8.33;;;;;12.29;73.67;100819.97;5079231;27;45422;-72
2022/12/20 11:08:49;;;;;;;;;9.00;7.67;;;;;11.57;73.24;100695.72;5077706;27;45174;-74
2022/12/20 11:11:16;;;;;;;;;7.67;7.00;;;;;12.49;73.73;100848.16;5087805;27;46463;-74
2022/12/20 11:13:42;;;;;;;;;9.67;8.33;;;;;11.27;74.04;100647.19;5080197;27;45628;-72
2022/12/20 11:16:35;;;;;;;;;8.33;8.33;;;;;12.47;73.59;100839.47;5067380;28;45487;-72
2022/12/20 11:19:32;;;;;;;;;8.00;8.00;;;;;12.44;74.61;100844.28;5067764;28;45554;-73
2022/12/20 11:22:36;;;;;;;;;11.33;9.33;;;;;12.49;74.13;100840.16;5008228;28;45400;-77
2022/12/20 11:25:14;;;;;;;;;10.33;8.00;;;;;12.46;73.63;100845.78;5056854;28;45405;-71
2022/12/20 11:27:50;;;;;;;;;10.67;10.33;;;;;12.39;73.82;100828.72;5062629;28;45309;-74
2022/12/20 11:30:20;;;;;;;;;9.00;8.00;;;;;12.42;73.33;100863.09;5077533;28;45268;-74
2022/12/20 11:32:54;;;;;;;;;8.33;7.33;;;;;12.13;73.30;100788.69;5074017;28;45535;-74
2022/12/20 11:35:44;;;;;;;;;8.67;8.00;;;;;11.40;72.96;100667.25;5066071;28;45427;-75
2022/12/20 11:38:28;;;;;;;;;14.00;14.00;;;;;12.43;72.65;100834.59;5066556;28;45519;-73
2022/12/20 11:41:08;;;;;;;;;12.00;11.00;;;;;12.44;72.94;100828.28;5060661;28;45506;-71